Time;durP1;ratioP1;P1;durP2;ratioP2;P2;SDS_P1;SDS_P2;PMS_P1;PMS_P2;Temp;Humidity;BMP_temperature;BMP_pressure;BME280_temperature;BME280_humidity;BME280_pressure;Samples;Min_cycle;Max_cycle;Signal;HPM_P1;HPM_P2
2021/07/02 00:00:46;;;;;;;5.60;3.28;;;16.40;99.90;;;;;;4995359;28;20101;-68
2021/07/02 00:03:12;;;;;;;5.32;3.10;;;16.40;99.90;;;;;;5012940;28;20475;-68
2021/07/02 00:05:38;;;;;;;8.30;3.97;;;16.30;99.90;;;;;;5012653;28;20045;-68
2021/07/02 00:08:04;;;;;;;7.03;3.33;;;16.30;99.90;;;;;;5012981;28;20029;-68
2021/07/02 00:10:30;;;;;;;8.38;3.88;;;16.20;99.90;;;;;;5012550;28;20104;-68
2021/07/02 00:12:56;;;;;;;7.90;3.45;;;16.10;99.90;;;;;;5012751;28;20114;-68
2021/07/02 00:15:22;;;;;;;8.15;3.67;;;16.10;99.90;;;;;;4995164;28;20460;-68
2021/07/02 00:17:48;;;;;;;7.97;4.13;;;16.00;99.90;;;;;;4995126;28;20041;-68
2021/07/02 00:20:14;;;;;;;4.70;3.20;;;16.00;99.90;;;;;;5012367;28;20026;-66
2021/07/02 00:22:40;;;;;;;5.70;3.47;;;16.00;99.90;;;;;;5012244;28;20199;-67
2021/07/02 00:25:07;;;;;;;7.80;4.30;;;16.00;99.90;;;;;;5012692;28;20062;-66
2021/07/02 00:27:33;;;;;;;7.97;4.47;;;16.00;99.90;;;;;;4994756;28;20050;-67
2021/07/02 00:29:59;;;;;;;7.47;3.97;;;15.90;99.90;;;;;;4994835;28;20123;-68
2021/07/02 00:32:25;;;;;;;9.20;4.72;;;15.80;99.90;;;;;;5012568;28;20038;-67
2021/07/02 00:34:50;;;;;;;15.30;5.03;;;15.80;99.90;;;;;;4995108;28;20029;-68
2021/07/02 00:37:16;;;;;;;7.43;4.50;;;15.90;99.90;;;;;;4994722;28;20044;-67
2021/07/02 00:39:42;;;;;;;7.70;4.18;;;15.90;99.90;;;;;;5012429;28;20025;-67
2021/07/02 00:42:08;;;;;;;7.07;4.28;;;15.90;99.90;;;;;;5012674;28;20113;-67
2021/07/02 00:44:46;;;;;;;7.82;4.05;;;15.90;99.90;;;;;;4994703;28;20489;-67
2021/07/02 00:47:14;;;;;;;7.35;4.53;;;15.90;99.90;;;;;;4995782;28;20114;-67
2021/07/02 00:49:40;;;;;;;9.43;5.07;;;15.80;99.90;;;;;;5012170;28;20038;-67
2021/07/02 00:52:09;;;;;;;9.32;4.63;;;15.80;99.90;;;;;;4994770;28;20030;-66
2021/07/02 00:54:37;;;;;;;9.40;4.38;;;15.80;99.90;;;;;;5012208;28;20034;-66
2021/07/02 00:57:05;;;;;;;10.60;4.13;;;15.90;99.90;;;;;;4994496;28;20034;-67
2021/07/02 00:59:32;;;;;;;8.40;4.22;;;16.00;99.90;;;;;;4994619;28;20439;-66
2021/07/02 01:01:59;;;;;;;10.55;4.60;;;15.80;99.90;;;;;;5012134;28;20030;-67
2021/07/02 01:04:25;;;;;;;11.45;3.88;;;15.80;99.90;;;;;;4994458;28;20030;-67
2021/07/02 01:06:53;;;;;;;6.68;3.85;;;15.80;99.90;;;;;;4994436;28;20057;-67
2021/07/02 01:09:20;;;;;;;7.25;3.90;;;15.80;99.90;;;;;;5012047;28;20495;-67
2021/07/02 01:11:46;;;;;;;8.10;4.47;;;15.90;99.90;;;;;;5012207;28;20487;-67
2021/07/02 01:14:12;;;;;;;5.53;3.45;;;15.80;99.90;;;;;;5012077;28;20026;-67
2021/07/02 01:16:38;;;;;;;5.75;3.22;;;15.90;99.90;;;;;;5011876;28;20092;-67
2021/07/02 01:19:05;;;;;;;7.82;3.47;;;15.90;99.90;;;;;;4994531;28;20030;-67
2021/07/02 01:21:30;;;;;;;5.95;3.80;;;15.70;99.90;;;;;;5011782;28;20069;-67
2021/07/02 01:23:57;;;;;;;9.32;3.80;;;15.50;99.90;;;;;;4994809;28;20058;-67
2021/07/02 01:26:23;;;;;;;7.55;4.25;;;15.50;99.90;;;;;;4994287;28;20038;-67
2021/07/02 01:28:49;;;;;;;6.60;4.07;;;15.50;99.90;;;;;;4994461;28;20487;-67
2021/07/02 01:31:15;;;;;;;6.18;3.80;;;15.60;99.90;;;;;;5011886;28;20042;-67
2021/07/02 01:33:41;;;;;;;8.88;4.32;;;15.70;99.90;;;;;;4994210;28;20546;-67
2021/07/02 01:36:20;;;;;;;9.25;4.32;;;15.70;99.90;;;;;;5013004;28;20175;-67
2021/07/02 01:38:46;;;;;;;8.15;4.50;;;15.60;99.90;;;;;;5015586;28;20491;-67
2021/07/02 01:41:12;;;;;;;9.80;4.75;;;15.30;99.90;;;;;;5015307;28;20387;-67
2021/07/02 01:43:38;;;;;;;8.35;4.50;;;15.30;99.90;;;;;;4997882;28;20034;-67
2021/07/02 01:46:03;;;;;;;10.43;5.13;;;15.20;99.90;;;;;;4997949;28;20042;-67
2021/07/02 01:48:30;;;;;;;9.02;5.22;;;15.30;99.90;;;;;;4997766;28;20059;-67
2021/07/02 01:50:56;;;;;;;9.63;5.28;;;15.30;99.90;;;;;;5015312;28;20383;-67
2021/07/02 01:53:22;;;;;;;17.10;5.60;;;15.30;99.90;;;;;;5014955;28;20621;-67
2021/07/02 01:55:49;;;;;;;8.45;4.97;;;15.30;99.90;;;;;;5014974;28;20069;-67
2021/07/02 01:58:14;;;;;;;9.48;5.30;;;15.20;99.90;;;;;;4997492;28;20069;-67
2021/07/02 02:00:42;;;;;;;10.95;5.57;;;15.20;99.90;;;;;;5014742;28;20061;-67
2021/07/02 02:03:08;;;;;;;11.25;5.70;;;15.20;99.90;;;;;;5015141;28;20026;-67
2021/07/02 02:05:34;;;;;;;9.68;5.25;;;15.20;99.90;;;;;;5015423;28;20048;-67
2021/07/02 02:07:59;;;;;;;9.70;5.63;;;15.20;99.90;;;;;;5018132;28;20049;-67
2021/07/02 02:10:25;;;;;;;14.18;7.10;;;15.20;99.90;;;;;;5014613;28;20088;-67
2021/07/02 02:12:51;;;;;;;10.50;5.65;;;15.10;99.90;;;;;;4997096;28;20121;-67
2021/07/02 02:15:17;;;;;;;10.73;5.95;;;15.20;99.90;;;;;;4997171;28;20076;-67
2021/07/02 02:17:42;;;;;;;10.38;6.13;;;15.10;99.90;;;;;;5014365;28;20856;-67
2021/07/02 02:20:11;;;;;;;12.20;7.35;;;15.10;99.90;;;;;;4997311;28;20517;-67
2021/07/02 02:22:38;;;;;;;8.98;5.95;;;15.10;99.90;;;;;;4997195;28;20040;-67
2021/07/02 02:25:06;;;;;;;10.10;5.70;;;15.00;99.90;;;;;;4997419;28;20040;-67
2021/07/02 02:27:34;;;;;;;11.00;6.40;;;15.00;99.90;;;;;;4996958;28;20034;-67
2021/07/02 02:30:00;;;;;;;10.35;6.25;;;15.00;99.90;;;;;;5014538;28;20030;-67
2021/07/02 02:32:26;;;;;;;10.60;5.75;;;15.00;99.90;;;;;;5014143;28;20042;-67
2021/07/02 02:34:52;;;;;;;10.00;5.60;;;15.00;99.90;;;;;;4996798;28;20088;-67
2021/07/02 02:37:18;;;;;;;8.95;5.32;;;15.10;99.90;;;;;;4996786;28;20042;-67
2021/07/02 02:39:43;;;;;;;9.18;5.30;;;15.20;99.90;;;;;;4996529;28;20026;-68
2021/07/02 02:42:09;;;;;;;9.23;4.80;;;15.30;99.90;;;;;;5014389;28;20485;-68
2021/07/02 02:44:35;;;;;;;10.30;5.28;;;15.30;99.90;;;;;;5014281;28;20545;-68
2021/07/02 02:47:01;;;;;;;13.25;5.07;;;15.40;99.90;;;;;;5013746;28;20038;-68
2021/07/02 02:49:27;;;;;;;8.98;5.55;;;15.40;99.90;;;;;;5013588;28;20112;-67
2021/07/02 02:51:52;;;;;;;8.82;5.35;;;15.50;99.90;;;;;;5014003;28;20483;-67
2021/07/02 02:54:18;;;;;;;7.88;4.80;;;15.40;99.90;;;;;;4996734;28;20033;-67
2021/07/02 02:59:28;;;;;;;9.15;5.25;;;15.50;99.90;;;;;;5014087;28;20088;-67
2021/07/02 03:01:55;;;;;;;9.20;5.20;;;15.30;99.90;;;;;;5014043;28;20030;-67
2021/07/02 03:04:20;;;;;;;10.10;5.80;;;15.20;99.90;;;;;;4996516;28;20065;-67
2021/07/02 03:06:46;;;;;;;9.30;5.57;;;15.20;99.90;;;;;;5013459;28;20439;-67
2021/07/02 03:09:12;;;;;;;10.23;5.45;;;15.20;99.90;;;;;;5013519;28;20410;-67
2021/07/02 03:11:38;;;;;;;9.48;4.90;;;15.20;99.90;;;;;;5013954;28;20038;-68
2021/07/02 03:14:03;;;;;;;12.02;5.40;;;15.10;99.90;;;;;;4996415;28;20026;-68
2021/07/02 03:16:31;;;;;;;9.38;5.47;;;15.10;99.90;;;;;;5013612;28;20040;-68
2021/07/02 03:18:57;;;;;;;8.15;4.75;;;15.10;99.90;;;;;;4995881;28;20030;-67
2021/07/02 03:21:23;;;;;;;9.45;5.90;;;15.10;99.90;;;;;;4995793;28;20076;-67
2021/07/02 03:23:49;;;;;;;8.63;5.55;;;15.20;99.90;;;;;;5013555;28;20467;-68
2021/07/02 03:26:16;;;;;;;11.20;5.45;;;15.10;99.90;;;;;;5013715;28;20160;-67
2021/07/02 03:28:43;;;;;;;10.55;5.60;;;15.10;99.90;;;;;;4996315;28;20041;-68
2021/07/02 03:31:09;;;;;;;10.85;5.53;;;15.10;99.90;;;;;;4995710;28;20037;-68
2021/07/02 03:33:35;;;;;;;11.25;5.80;;;15.00;99.90;;;;;;4995454;28;20040;-68
2021/07/02 03:36:01;;;;;;;13.38;5.40;;;15.00;99.90;;;;;;4995456;28;20030;-67
2021/07/02 03:38:26;;;;;;;11.48;6.43;;;15.10;99.90;;;;;;5013024;28;20029;-68
2021/07/02 03:40:52;;;;;;;11.48;5.07;;;15.10;99.90;;;;;;5012851;28;20483;-68
2021/07/02 03:43:18;;;;;;;11.20;5.47;;;15.20;99.90;;;;;;5013191;28;20033;-68
2021/07/02 03:45:44;;;;;;;11.82;5.50;;;15.20;99.90;;;;;;4995352;28;20044;-67
2021/07/02 03:48:11;;;;;;;9.95;5.85;;;15.20;99.90;;;;;;5014019;28;20041;-68
2021/07/02 03:50:37;;;;;;;11.02;5.50;;;15.30;99.90;;;;;;5032362;28;20021;-68
2021/07/02 03:53:04;;;;;;;10.55;6.30;;;15.20;99.90;;;;;;5015133;28;20042;-69
2021/07/02 03:55:30;;;;;;;12.55;7.00;;;15.20;99.90;;;;;;5032540;28;20029;-68
2021/07/02 03:57:56;;;;;;;20.13;7.18;;;15.10;99.90;;;;;;5031458;28;20034;-68
2021/07/02 04:00:22;;;;;;;12.77;6.78;;;15.10;99.90;;;;;;5031987;28;20424;-68
2021/07/02 04:02:48;;;;;;;12.52;7.50;;;15.00;99.90;;;;;;5014861;28;20038;-68
2021/07/02 04:05:14;;;;;;;10.90;7.13;;;14.90;99.90;;;;;;5032484;28;20021;-68
2021/07/02 04:07:40;;;;;;;11.95;7.45;;;14.90;99.90;;;;;;4998438;28;20029;-68
2021/07/02 04:10:07;;;;;;;15.77;8.48;;;14.90;99.90;;;;;;5032592;28;20042;-68
2021/07/02 04:12:32;;;;;;;15.25;8.20;;;14.90;99.90;;;;;;5031892;28;20498;-68
2021/07/02 04:14:58;;;;;;;14.00;8.05;;;14.90;99.90;;;;;;5030231;28;20049;-69
2021/07/02 04:17:24;;;;;;;12.32;7.25;;;14.90;99.90;;;;;;5020171;28;20394;-69
2021/07/02 04:19:50;;;;;;;11.57;6.60;;;14.80;99.90;;;;;;5012328;28;20076;-68
2021/07/02 04:22:16;;;;;;;11.38;6.45;;;14.80;99.90;;;;;;5012791;28;20355;-68
2021/07/02 04:24:42;;;;;;;10.30;5.97;;;14.80;99.90;;;;;;4994824;28;20171;-67
2021/07/02 04:27:08;;;;;;;13.10;6.28;;;14.70;99.90;;;;;;5012295;28;20038;-67
2021/07/02 04:29:34;;;;;;;11.48;5.95;;;14.70;99.90;;;;;;5012516;28;20029;-66
2021/07/02 04:32:00;;;;;;;12.55;6.47;;;14.70;99.90;;;;;;5012384;28;20041;-68
2021/07/02 04:34:26;;;;;;;17.08;7.03;;;14.70;99.90;;;;;;5012557;28;20146;-67
2021/07/02 04:36:51;;;;;;;11.40;6.88;;;14.70;99.90;;;;;;5012342;28;20073;-66
2021/07/02 04:39:19;;;;;;;11.02;5.93;;;14.70;99.90;;;;;;5012608;28;20045;-67
2021/07/02 04:41:46;;;;;;;11.60;6.25;;;14.80;99.90;;;;;;5012287;28;20037;-68
2021/07/02 04:44:11;;;;;;;13.07;6.97;;;14.80;99.90;;;;;;5012762;28;20030;-68
2021/07/02 04:46:37;;;;;;;12.63;7.10;;;14.80;99.90;;;;;;5000470;28;20041;-69
2021/07/02 04:49:03;;;;;;;14.13;6.95;;;14.80;99.90;;;;;;5031881;28;20065;-67
2021/07/02 04:51:28;;;;;;;13.30;6.05;;;14.80;99.90;;;;;;5031817;28;20026;-67
2021/07/02 04:53:54;;;;;;;12.10;6.20;;;14.80;99.90;;;;;;5028240;28;20402;-69
2021/07/02 04:56:20;;;;;;;13.73;6.07;;;14.80;99.90;;;;;;5028448;28;20038;-68
2021/07/02 04:58:51;;;;;;;15.00;8.63;;;14.90;99.90;;;;;;5024668;28;20065;-69
2021/07/02 05:01:17;;;;;;;12.73;7.43;;;15.00;99.90;;;;;;5014286;28;20037;-68
2021/07/02 05:03:43;;;;;;;15.10;8.60;;;15.00;99.90;;;;;;5032016;28;20033;-67
2021/07/02 05:06:09;;;;;;;15.77;7.57;;;15.10;99.90;;;;;;5031552;28;20045;-68
2021/07/02 05:08:37;;;;;;;14.65;7.72;;;15.20;99.90;;;;;;5031594;28;20037;-68
2021/07/02 05:11:03;;;;;;;31.48;12.43;;;15.10;99.90;;;;;;5032483;28;20124;-70
2021/07/02 05:13:32;;;;;;;18.33;7.90;;;15.20;99.90;;;;;;5035595;28;20057;-68
2021/07/02 05:15:57;;;;;;;13.77;7.68;;;15.10;99.90;;;;;;5033899;28;20030;-69
2021/07/02 05:18:23;;;;;;;17.02;8.32;;;15.10;99.90;;;;;;5015713;28;20541;-73
2021/07/02 05:20:49;;;;;;;16.65;6.95;;;15.10;99.90;;;;;;4997954;28;20399;-73
2021/07/02 05:23:15;;;;;;;14.35;7.72;;;15.10;99.90;;;;;;5014219;28;20065;-72
2021/07/02 05:25:41;;;;;;;15.02;7.55;;;15.10;99.90;;;;;;5015525;28;20048;-73
2021/07/02 05:28:06;;;;;;;18.05;7.40;;;15.20;99.90;;;;;;5015753;28;20026;-75
2021/07/02 05:30:33;;;;;;;11.77;7.72;;;15.20;99.90;;;;;;5015486;28;20383;-72
2021/07/02 05:32:58;;;;;;;16.17;7.50;;;15.40;99.90;;;;;;4997661;28;20026;-71
2021/07/02 05:35:25;;;;;;;12.43;7.70;;;15.50;99.90;;;;;;5015065;28;20687;-73
2021/07/02 05:37:50;;;;;;;12.68;7.72;;;15.50;99.90;;;;;;5015145;28;20462;-72
2021/07/02 05:40:17;;;;;;;14.23;8.10;;;15.50;99.90;;;;;;5015177;28;20037;-72
2021/07/02 05:42:43;;;;;;;14.65;7.53;;;15.60;99.90;;;;;;5015068;28;20176;-71
2021/07/02 05:45:10;;;;;;;13.93;7.03;;;15.70;99.90;;;;;;5015152;28;20030;-72
2021/07/02 05:47:38;;;;;;;11.25;6.75;;;15.70;99.90;;;;;;5014752;28;20044;-72
2021/07/02 05:50:06;;;;;;;16.65;6.88;;;15.90;99.90;;;;;;5015283;28;20037;-72
2021/07/02 05:52:34;;;;;;;15.32;7.40;;;15.90;99.90;;;;;;5015370;28;20026;-73
2021/07/02 05:55:02;;;;;;;20.55;11.18;;;16.00;99.90;;;;;;4997648;28;20034;-72
2021/07/02 05:57:27;;;;;;;19.58;10.02;;;16.00;99.90;;;;;;5014938;28;20041;-72
2021/07/02 05:59:53;;;;;;;14.45;7.60;;;16.10;99.90;;;;;;5016912;28;20096;-73
2021/07/02 06:02:19;;;;;;;14.30;8.20;;;16.20;99.90;;;;;;5014784;28;20041;-72
2021/07/02 06:04:44;;;;;;;11.15;6.38;;;16.20;99.90;;;;;;5014658;28;20037;-72
2021/07/02 06:07:10;;;;;;;12.63;7.35;;;16.20;99.90;;;;;;5014598;28;20054;-72
2021/07/02 06:09:36;;;;;;;15.32;6.30;;;16.20;99.90;;;;;;5017289;28;20076;-72
2021/07/02 06:12:03;;;;;;;18.52;7.32;;;16.30;99.90;;;;;;5014827;28;20113;-72
2021/07/02 06:14:30;;;;;;;14.40;6.70;;;16.30;99.90;;;;;;4981288;28;20030;-72
2021/07/02 06:16:56;;;;;;;17.75;7.10;;;16.50;99.90;;;;;;5014509;28;20037;-72
2021/07/02 06:19:22;;;;;;;15.23;6.80;;;16.60;99.90;;;;;;4997065;28;20080;-72
2021/07/02 06:21:48;;;;;;;13.02;6.00;;;16.70;99.90;;;;;;5014164;28;20026;-72
2021/07/02 06:24:14;;;;;;;12.85;5.25;;;16.80;99.90;;;;;;5014456;28;20037;-72
2021/07/02 06:26:40;;;;;;;13.40;4.90;;;16.90;99.90;;;;;;5014423;28;20117;-73
2021/07/02 06:29:06;;;;;;;10.65;5.32;;;17.00;99.90;;;;;;4997122;28;20488;-73
2021/07/02 06:31:31;;;;;;;12.52;5.97;;;16.90;99.90;;;;;;5013985;28;20398;-72
2021/07/02 06:33:57;;;;;;;11.63;5.75;;;17.00;99.90;;;;;;5014134;28;20022;-72
2021/07/02 06:36:23;;;;;;;10.88;5.70;;;17.00;99.90;;;;;;5014224;28;20045;-72
2021/07/02 06:38:49;;;;;;;11.30;6.32;;;17.10;99.90;;;;;;4996429;28;20487;-72
2021/07/02 06:41:14;;;;;;;11.52;6.60;;;17.10;99.90;;;;;;5013939;28;20086;-72
2021/07/02 06:43:40;;;;;;;13.02;6.40;;;17.20;99.90;;;;;;5013919;28;20038;-72
2021/07/02 06:46:06;;;;;;;17.08;6.30;;;17.20;99.90;;;;;;5014300;28;20038;-72
2021/07/02 06:48:32;;;;;;;15.98;7.85;;;17.30;99.90;;;;;;4996677;28;20068;-72
2021/07/02 06:50:57;;;;;;;12.40;5.60;;;17.30;99.90;;;;;;4996057;28;20030;-72
2021/07/02 06:53:24;;;;;;;11.88;5.68;;;17.20;99.90;;;;;;5013976;28;20037;-72
2021/07/02 06:55:53;;;;;;;13.27;4.80;;;17.30;99.90;;;;;;4996253;28;20117;-72
2021/07/02 06:58:19;;;;;;;9.80;5.60;;;17.50;99.90;;;;;;5013578;28;20108;-72
2021/07/02 07:00:45;;;;;;;8.73;4.80;;;17.50;99.90;;;;;;4996532;28;20022;-72
2021/07/02 07:03:11;;;;;;;10.00;5.05;;;17.70;99.90;;;;;;4996230;28;20070;-72
2021/07/02 07:05:39;;;;;;;8.73;4.05;;;17.70;99.90;;;;;;5013764;28;20440;-72
2021/07/02 07:08:07;;;;;;;14.15;4.20;;;17.80;99.90;;;;;;5013594;28;20045;-72
2021/07/02 07:10:35;;;;;;;7.68;4.00;;;17.70;99.90;;;;;;4996693;28;20121;-72
2021/07/02 07:13:05;;;;;;;8.10;4.82;;;17.80;99.90;;;;;;5013287;28;20064;-73
2021/07/02 07:15:31;;;;;;;7.20;3.87;;;17.70;99.90;;;;;;4996697;28;20056;-73
2021/07/02 07:17:57;;;;;;;10.45;5.38;;;17.80;99.90;;;;;;5013045;28;20056;-72
2021/07/02 07:20:23;;;;;;;6.50;4.18;;;17.80;99.90;;;;;;4995928;28;20459;-72
2021/07/02 07:22:49;;;;;;;8.38;4.25;;;17.80;99.90;;;;;;4996136;28;20069;-72
2021/07/02 07:25:15;;;;;;;5.60;3.15;;;17.90;99.90;;;;;;5013616;28;20455;-72
2021/07/02 07:27:44;;;;;;;8.60;3.47;;;17.90;99.90;;;;;;4995762;28;20081;-72
2021/07/02 07:30:11;;;;;;;5.68;3.35;;;18.00;99.00;;;;;;5013544;28;20032;-72
2021/07/02 07:32:38;;;;;;;6.20;3.42;;;18.00;98.90;;;;;;5013559;28;20037;-71
2021/07/02 07:35:24;;;;;;;7.15;3.67;;;18.10;98.90;;;;;;5012784;28;20064;-72
2021/07/02 07:37:57;;;;;;;6.55;3.80;;;18.10;99.90;;;;;;5013102;28;20065;-72
2021/07/02 07:40:29;;;;;;;7.38;4.03;;;18.20;99.90;;;;;;4996616;28;20030;-72
2021/07/02 07:42:56;;;;;;;6.13;3.47;;;18.30;99.80;;;;;;5013166;28;20454;-72
2021/07/02 07:45:22;;;;;;;10.15;4.40;;;18.40;99.90;;;;;;5012756;28;20061;-70
2021/07/02 07:47:49;;;;;;;7.15;4.20;;;18.50;99.90;;;;;;5013112;28;20520;-72
2021/07/02 07:50:22;;;;;;;12.02;4.97;;;18.40;99.40;;;;;;4995619;28;20029;-73
2021/07/02 07:52:58;;;;;;;7.97;4.70;;;18.30;99.90;;;;;;5012796;28;20048;-73
2021/07/02 07:55:28;;;;;;;9.98;4.82;;;18.50;99.90;;;;;;5013007;28;20038;-73
2021/07/02 07:57:56;;;;;;;10.10;5.57;;;18.60;99.90;;;;;;4995840;28;20034;-73
2021/07/02 08:00:23;;;;;;;11.77;5.43;;;18.70;99.90;;;;;;5012822;28;20030;-72
2021/07/02 08:02:50;;;;;;;9.25;5.30;;;18.70;99.90;;;;;;5012758;28;20045;-73
2021/07/02 08:05:16;;;;;;;7.68;5.18;;;18.80;99.90;;;;;;5012725;28;20053;-72
2021/07/02 08:07:44;;;;;;;9.55;5.10;;;18.80;99.90;;;;;;5012805;28;20026;-72
2021/07/02 08:10:14;;;;;;;9.13;4.63;;;18.90;99.90;;;;;;5012844;28;20033;-72
2021/07/02 08:12:41;;;;;;;10.02;5.10;;;19.00;99.90;;;;;;4995356;28;20123;-72
2021/07/02 08:15:10;;;;;;;10.02;5.68;;;18.90;99.90;;;;;;4995332;28;20040;-73
2021/07/02 08:17:37;;;;;;;8.23;4.45;;;18.80;99.90;;;;;;5029561;28;20046;-73
2021/07/02 08:20:05;;;;;;;11.45;5.32;;;19.00;99.90;;;;;;5032236;28;20609;-73
2021/07/02 08:22:31;;;;;;;9.65;5.78;;;19.20;99.90;;;;;;5031062;28;20532;-73
2021/07/02 08:24:57;;;;;;;9.82;5.60;;;19.20;99.90;;;;;;5031058;28;20055;-72
2021/07/02 08:27:25;;;;;;;10.73;5.50;;;19.10;99.90;;;;;;5030952;28;20037;-73
2021/07/02 08:29:51;;;;;;;10.32;5.75;;;19.20;99.90;;;;;;5032317;28;20033;-73
2021/07/02 08:32:18;;;;;;;13.82;6.57;;;19.30;99.90;;;;;;5030760;28;20036;-73
2021/07/02 08:34:44;;;;;;;9.85;5.93;;;19.40;99.90;;;;;;5031285;28;20033;-73
2021/07/02 08:37:10;;;;;;;9.43;5.20;;;19.50;99.90;;;;;;5030790;28;20515;-73
2021/07/02 08:39:36;;;;;;;12.20;5.60;;;19.50;99.90;;;;;;5032124;28;20045;-73
2021/07/02 08:42:05;;;;;;;9.23;5.45;;;19.60;99.90;;;;;;5030785;28;20049;-73
2021/07/02 08:44:34;;;;;;;7.85;4.80;;;19.70;99.60;;;;;;5031809;28;20386;-73
2021/07/02 08:47:01;;;;;;;14.82;5.70;;;19.80;99.70;;;;;;5036079;28;20040;-72
2021/07/02 08:49:32;;;;;;;7.05;5.00;;;20.00;99.50;;;;;;5035069;28;20056;-72
2021/07/02 08:51:58;;;;;;;;;;;20.10;99.60;;;;;;5036162;28;20033;-73
2021/07/02 08:54:24;;;;;;;10.05;5.80;;;20.30;99.90;;;;;;5036162;28;19948;-72
2021/07/02 08:56:56;;;;;;;11.70;6.00;;;20.50;98.50;;;;;;5035766;28;20490;-73
2021/07/02 08:59:27;;;;;;;10.82;4.65;;;20.60;98.40;;;;;;5034679;28;20037;-73
2021/07/02 09:01:54;;;;;;;8.43;4.47;;;20.80;98.10;;;;;;5018008;28;20091;-73
2021/07/02 09:04:35;;;;;;;9.80;5.68;;;20.70;97.70;;;;;;5034776;28;20384;-73
2021/07/02 09:07:12;;;;;;;9.20;5.07;;;20.80;98.10;;;;;;5034318;28;20049;-73
2021/07/02 09:09:55;;;;;;;9.80;5.03;;;21.00;98.50;;;;;;5035543;28;20037;-73
2021/07/02 09:12:35;;;;;;;11.48;5.82;;;21.30;98.10;;;;;;5034604;28;20075;-72
2021/07/02 09:15:14;;;;;;;8.35;5.40;;;21.30;97.30;;;;;;5035720;28;20034;-74
2021/07/02 09:17:48;;;;;;;11.63;5.80;;;21.30;97.60;;;;;;5035520;28;20072;-73
2021/07/02 09:20:15;;;;;;;7.95;5.20;;;21.30;98.00;;;;;;5035133;28;20033;-73
2021/07/02 09:22:53;;;;;;;11.23;5.65;;;21.20;96.90;;;;;;5035328;28;20068;-73
2021/07/02 09:25:41;;;;;;;10.07;5.30;;;21.10;97.00;;;;;;5035603;28;20171;-73
2021/07/02 09:28:10;;;;;;;9.60;5.30;;;21.20;97.10;;;;;;5017245;28;20053;-72
2021/07/02 09:30:42;;;;;;;7.72;5.03;;;21.40;96.60;;;;;;5035437;28;20108;-73
2021/07/02 09:33:13;;;;;;;9.48;4.95;;;21.50;95.80;;;;;;5034040;28;20037;-74
2021/07/02 09:35:52;;;;;;;11.07;5.00;;;21.50;96.20;;;;;;5035314;28;20033;-73
2021/07/02 09:38:31;;;;;;;12.13;5.60;;;21.50;96.20;;;;;;5034439;28;20036;-73
2021/07/02 09:40:56;;;;;;;8.85;4.40;;;21.60;96.70;;;;;;5034879;28;20029;-73
2021/07/02 09:43:27;;;;;;;8.70;4.82;;;21.80;95.70;;;;;;5035165;28;20429;-74
2021/07/02 09:45:56;;;;;;;8.75;4.97;;;21.70;95.30;;;;;;5034760;28;20061;-74
2021/07/02 09:48:26;;;;;;;7.53;4.63;;;21.70;95.60;;;;;;5033872;28;20083;-73
2021/07/02 09:50:59;;;;;;;7.50;5.07;;;21.90;95.90;;;;;;5034732;28;20540;-73
2021/07/02 09:53:32;;;;;;;9.63;4.22;;;22.40;95.50;;;;;;5034845;28;20034;-73
2021/07/02 09:56:01;;;;;;;7.78;4.47;;;22.70;94.80;;;;;;5016812;28;20065;-72
2021/07/02 09:58:36;;;;;;;9.95;5.05;;;22.70;94.20;;;;;;5034288;28;20036;-73
2021/07/02 10:01:04;;;;;;;8.00;4.90;;;22.50;94.50;;;;;;5034834;28;20030;-73
2021/07/02 10:03:36;;;;;;;7.93;4.63;;;22.30;94.70;;;;;;5031219;28;20058;-72
2021/07/02 10:06:30;;;;;;;9.00;4.50;;;22.10;95.60;;;;;;5014422;28;20471;-73
2021/07/02 10:08:55;;;;;;;7.93;4.88;;;22.40;95.40;;;;;;5011495;28;20081;-73
2021/07/02 10:11:23;;;;;;;7.60;4.43;;;22.60;94.80;;;;;;5019576;28;20053;-73
2021/07/02 10:13:49;;;;;;;8.82;4.88;;;22.60;94.10;;;;;;5034577;28;20033;-73
2021/07/02 10:16:15;;;;;;;7.85;4.40;;;22.40;94.40;;;;;;5016392;28;20044;-72
2021/07/02 10:18:50;;;;;;;9.75;5.00;;;22.60;94.20;;;;;;5032986;28;20065;-73
2021/07/02 10:21:19;;;;;;;9.07;5.43;;;22.70;94.30;;;;;;5034201;28;20025;-73
2021/07/02 10:23:48;;;;;;;11.32;4.85;;;22.70;94.40;;;;;;5032776;28;20049;-73
2021/07/02 10:26:16;;;;;;;7.55;4.53;;;23.00;94.20;;;;;;5034072;28;20033;-74
2021/07/02 10:28:44;;;;;;;8.02;4.70;;;23.20;93.60;;;;;;5032885;28;20030;-74
2021/07/02 10:31:16;;;;;;;7.93;4.03;;;23.10;93.90;;;;;;5033359;28;20034;-73
2021/07/02 10:33:53;;;;;;;6.13;4.25;;;23.00;93.20;;;;;;5033244;28;20033;-72
2021/07/02 10:36:21;;;;;;;8.98;4.85;;;22.80;93.40;;;;;;5033732;28;20069;-73
2021/07/02 10:38:52;;;;;;;6.30;3.97;;;22.60;93.60;;;;;;5032801;28;20120;-71
2021/07/02 10:41:19;;;;;;;8.55;5.30;;;22.50;93.80;;;;;;5032647;28;20095;-73
2021/07/02 10:44:08;;;;;;;11.02;4.65;;;22.50;94.00;;;;;;5033648;28;20502;-72
2021/07/02 10:46:40;;;;;;;7.35;4.47;;;22.50;94.10;;;;;;5034117;28;20374;-72
2021/07/02 10:49:11;;;;;;;7.72;4.55;;;22.70;95.00;;;;;;5015673;28;20536;-72
2021/07/02 10:51:42;;;;;;;8.63;5.15;;;22.90;94.40;;;;;;5033614;28;20033;-72
2021/07/02 10:54:14;;;;;;;7.30;4.57;;;22.90;93.30;;;;;;5033407;28;20105;-73
2021/07/02 10:56:56;;;;;;;7.43;4.38;;;23.00;93.90;;;;;;5033537;28;20063;-72
2021/07/02 10:59:42;;;;;;;10.38;5.93;;;23.00;93.80;;;;;;5033588;28;20036;-72
2021/07/02 11:02:08;;;;;;;8.95;4.80;;;22.70;92.90;;;;;;5033210;28;20029;-72
2021/07/02 11:04:40;;;;;;;8.90;4.85;;;22.70;93.70;;;;;;5033334;28;20464;-72
2021/07/02 11:07:11;;;;;;;9.52;5.97;;;22.90;94.80;;;;;;5033104;28;20053;-72
2021/07/02 11:12:20;;;;;;;10.63;5.68;;;23.40;93.10;;;;;;5033096;28;20044;-72
2021/07/02 11:14:51;;;;;;;10.60;5.55;;;23.30;93.60;;;;;;5033750;28;20037;-72
2021/07/02 11:17:24;;;;;;;7.13;4.45;;;23.60;93.10;;;;;;5032975;28;20486;-74
2021/07/02 11:20:06;;;;;;;10.68;5.80;;;23.80;92.40;;;;;;5033185;28;20034;-72
2021/07/02 11:22:35;;;;;;;9.55;6.30;;;23.90;92.80;;;;;;5032960;28;20041;-72
2021/07/02 11:25:09;;;;;;;11.23;5.22;;;24.10;92.60;;;;;;5032722;28;20037;-72
2021/07/02 11:27:43;;;;;;;9.77;5.43;;;24.50;91.70;;;;;;5032688;28;20486;-72
2021/07/02 11:30:24;;;;;;;7.80;4.55;;;24.60;91.90;;;;;;5031589;28;20124;-72
2021/07/02 11:33:02;;;;;;;9.43;5.68;;;24.30;92.10;;;;;;5032828;28;20033;-72
2021/07/02 11:35:38;;;;;;;9.90;5.53;;;24.20;91.40;;;;;;5031612;28;20593;-72
2021/07/02 11:38:15;;;;;;;9.20;5.57;;;23.90;92.10;;;;;;5032762;28;20382;-72
2021/07/02 11:40:52;;;;;;;9.13;5.25;;;24.00;92.70;;;;;;5031599;28;20040;-72
2021/07/02 11:43:22;;;;;;;8.45;5.18;;;24.20;91.70;;;;;;5032625;28;20029;-72
2021/07/02 11:45:56;;;;;;;;;;;24.30;91.80;;;;;;5033237;28;20040;-72
2021/07/02 11:48:24;;;;;;;8.85;4.72;;;24.30;91.50;;;;;;5032479;28;19913;-72
2021/07/02 11:51:10;;;;;;;8.43;4.85;;;24.20;91.40;;;;;;5032691;28;20034;-72
2021/07/02 11:53:49;;;;;;;8.90;5.20;;;24.20;92.10;;;;;;5014891;28;20504;-71
2021/07/02 11:56:31;;;;;;;7.15;4.03;;;23.70;92.10;;;;;;5031238;28;20041;-72
2021/07/02 11:59:06;;;;;;;10.38;5.43;;;23.80;91.30;;;;;;5032216;28;20037;-72
2021/07/02 12:01:41;;;;;;;7.03;4.60;;;23.70;92.60;;;;;;5032775;28;20086;-72
2021/07/02 12:04:20;;;;;;;8.10;4.78;;;23.90;92.00;;;;;;5031182;28;20033;-72
2021/07/02 12:06:52;;;;;;;8.10;3.92;;;23.90;91.50;;;;;;5031075;28;20056;-72
2021/07/02 12:09:21;;;;;;;8.60;4.30;;;23.70;90.40;;;;;;5031124;28;20021;-73
2021/07/02 12:11:56;;;;;;;7.20;4.40;;;23.80;90.90;;;;;;5032290;28;20074;-72
2021/07/02 12:14:32;;;;;;;8.00;4.38;;;23.80;91.70;;;;;;5032284;28;20087;-72
2021/07/02 12:16:59;;;;;;;8.45;4.22;;;23.60;91.60;;;;;;4998362;28;20490;-71
2021/07/02 12:19:31;;;;;;;8.98;4.93;;;23.30;91.10;;;;;;5031851;28;20037;-62
2021/07/02 12:22:13;;;;;;;8.77;5.15;;;23.10;91.90;;;;;;5029222;28;20029;-69
2021/07/02 12:24:48;;;;;;;9.13;5.00;;;23.20;92.50;;;;;;5030895;28;20033;-68
2021/07/02 12:27:19;;;;;;;8.35;5.10;;;23.30;93.40;;;;;;5031847;28;20532;-68
2021/07/02 12:29:46;;;;;;;;;;;23.30;92.50;;;;;;5032732;28;20049;-68
2021/07/02 12:32:15;;;;;;;10.48;5.03;;;23.40;92.90;;;;;;4997893;28;19913;-68
2021/07/02 12:34:49;;;;;;;8.55;4.40;;;23.80;92.20;;;;;;5031218;28;20064;-68
2021/07/02 12:37:25;;;;;;;8.38;4.70;;;23.90;92.10;;;;;;5031814;28;20492;-68
2021/07/02 12:39:54;;;;;;;6.57;4.75;;;24.00;91.10;;;;;;5030590;28;20560;-67
2021/07/02 12:42:33;;;;;;;7.97;4.82;;;24.20;91.20;;;;;;5030595;28;20433;-68
2021/07/02 12:45:06;;;;;;;7.97;5.18;;;24.20;89.70;;;;;;5030889;28;20022;-69
2021/07/02 12:47:34;;;;;;;9.85;5.50;;;24.00;90.00;;;;;;5014220;28;20417;-68
2021/07/02 12:50:05;;;;;;;9.68;4.78;;;24.00;91.20;;;;;;5030584;28;20120;-68
2021/07/02 12:55:19;;;;;;;8.15;5.00;;;24.00;91.30;;;;;;5032151;28;19909;-68
2021/07/02 12:57:48;;;;;;;11.10;4.93;;;24.60;91.70;;;;;;5030855;28;20513;-69